createdAt,value
2017-09-21T00:01:06.592Z,65.70
2017-09-21T00:03:34.101Z,65.80
2017-09-21T00:06:01.641Z,65.90
2017-09-21T00:08:30.071Z,66.00
2017-09-21T00:10:57.937Z,66.00
2017-09-21T00:13:25.454Z,66.00
2017-09-21T00:15:52.974Z,66.10
2017-09-21T00:18:20.525Z,66.10
2017-09-21T00:20:48.807Z,66.10
2017-09-21T00:23:17.415Z,66.20
2017-09-21T00:25:44.947Z,66.10
2017-09-21T00:28:13.235Z,66.10
2017-09-21T00:30:40.776Z,66.30
2017-09-21T00:33:09.054Z,66.30
2017-09-21T00:35:37.673Z,66.40
2017-09-21T00:38:05.184Z,66.40
2017-09-21T00:40:32.707Z,66.40
2017-09-21T00:43:00.257Z,66.50
2017-09-21T00:45:27.764Z,66.50
2017-09-21T00:47:56.503Z,66.40
2017-09-21T00:50:24.030Z,66.40
2017-09-21T00:52:52.316Z,66.40
2017-09-21T00:55:20.626Z,66.50
2017-09-21T00:57:48.150Z,66.50
2017-09-21T01:00:16.865Z,66.60
2017-09-21T01:02:44.370Z,66.60
2017-09-21T01:05:11.886Z,66.60
2017-09-21T01:07:39.423Z,66.70
2017-09-21T01:10:07.699Z,66.70
2017-09-21T01:12:35.695Z,66.70
2017-09-21T01:15:03.218Z,66.90
2017-09-21T01:17:30.744Z,66.90
2017-09-21T01:19:58.307Z,66.90
2017-09-21T01:22:25.832Z,67.00
2017-09-21T01:24:53.702Z,67.10
2017-09-21T01:27:21.206Z,67.20
2017-09-21T01:29:48.719Z,67.10
2017-09-21T01:32:16.247Z,66.70
2017-09-21T01:34:44.534Z,67.00
2017-09-21T01:37:12.444Z,67.00
2017-09-21T01:39:39.980Z,67.10
2017-09-21T01:42:07.518Z,67.20
2017-09-21T01:44:35.833Z,67.30
2017-09-21T01:47:03.354Z,67.30
2017-09-21T01:49:31.939Z,67.30
2017-09-21T01:52:00.219Z,67.30
2017-09-21T01:54:28.507Z,67.20
2017-09-21T01:56:56.050Z,67.30
2017-09-21T01:59:24.334Z,67.40
2017-09-21T02:01:52.946Z,67.50
2017-09-21T02:04:20.465Z,67.50
2017-09-21T02:06:48.783Z,67.50
2017-09-21T02:09:16.330Z,67.50
2017-09-21T02:11:43.847Z,67.60
2017-09-21T02:14:11.881Z,67.70
2017-09-21T02:16:39.414Z,67.70
2017-09-21T02:19:06.935Z,67.80
2017-09-21T02:21:34.509Z,67.80
2017-09-21T02:24:02.816Z,67.90
2017-09-21T02:26:30.704Z,67.90
2017-09-21T02:28:58.234Z,67.90
2017-09-21T02:31:25.772Z,67.80
2017-09-21T02:33:53.300Z,67.80
2017-09-21T02:36:20.821Z,67.70
2017-09-21T02:38:48.715Z,67.70
2017-09-21T02:41:16.236Z,67.70
2017-09-21T02:43:44.523Z,67.60
2017-09-21T02:46:12.827Z,67.50
2017-09-21T02:48:40.344Z,67.60
2017-09-21T02:51:08.958Z,67.50
2017-09-21T02:53:36.471Z,67.50
2017-09-21T02:56:04.009Z,67.40
2017-09-21T02:58:31.553Z,67.40
2017-09-21T03:00:59.083Z,67.40
2017-09-21T03:03:26.935Z,67.30
2017-09-21T03:05:55.223Z,67.30
2017-09-21T03:08:23.508Z,67.30
2017-09-21T03:10:51.810Z,67.40
2017-09-21T03:13:19.316Z,67.40
2017-09-21T03:15:47.230Z,67.40
2017-09-21T03:18:14.744Z,67.50
2017-09-21T03:20:42.261Z,67.60
2017-09-21T03:23:09.820Z,67.80
2017-09-21T03:25:37.337Z,67.80
2017-09-21T03:28:05.954Z,68.80
2017-09-21T03:30:33.482Z,68.00
2017-09-21T03:33:01.775Z,68.10
2017-09-21T03:35:29.329Z,68.20
2017-09-21T03:37:57.619Z,68.40
2017-09-21T03:40:25.499Z,68.20
2017-09-21T03:42:53.019Z,68.40
2017-09-21T03:45:20.521Z,68.40
2017-09-21T03:47:48.058Z,68.40
2017-09-21T03:50:16.346Z,68.60
2017-09-21T03:52:44.229Z,68.60
2017-09-21T03:55:11.739Z,68.70
2017-09-21T03:57:39.275Z,68.80
2017-09-21T04:00:06.826Z,68.90
2017-09-21T04:02:34.358Z,69.00
2017-09-21T04:05:02.240Z,69.80
2017-09-21T04:07:29.771Z,69.20
2017-09-21T04:09:58.052Z,69.20
2017-09-21T04:12:26.375Z,69.40
2017-09-21T04:14:53.896Z,69.40
2017-09-21T04:17:21.799Z,69.40
2017-09-21T04:19:49.323Z,69.50
2017-09-21T04:22:17.603Z,69.60
2017-09-21T04:24:45.146Z,69.60
2017-09-21T04:27:13.443Z,69.50
2017-09-21T04:29:41.319Z,69.60
2017-09-21T04:32:08.833Z,69.60
2017-09-21T04:34:36.348Z,69.70
2017-09-21T04:37:03.913Z,69.70
2017-09-21T04:39:31.439Z,69.80
2017-09-21T04:42:00.076Z,69.80
2017-09-21T04:44:27.616Z,69.90
2017-09-21T04:46:55.140Z,70.00
2017-09-21T04:49:23.463Z,69.90
2017-09-21T04:51:50.971Z,70.00
2017-09-21T04:54:19.599Z,69.80
2017-09-21T04:56:47.144Z,69.80
2017-09-21T04:59:14.668Z,69.90
2017-09-21T05:01:43.007Z,69.90
2017-09-21T05:04:10.559Z,69.90
2017-09-21T05:06:38.419Z,70.00
2017-09-21T05:09:05.932Z,69.90
2017-09-21T05:11:33.444Z,70.00
2017-09-21T05:14:00.991Z,70.00
2017-09-21T05:16:28.514Z,70.00
2017-09-21T05:18:56.426Z,70.70
2017-09-21T05:21:23.959Z,69.90
2017-09-21T05:23:52.252Z,69.80
2017-09-21T05:26:19.787Z,69.80
2017-09-21T05:28:48.081Z,69.70
2017-09-21T05:31:16.665Z,69.70
2017-09-21T05:33:44.956Z,69.60
2017-09-21T05:36:12.470Z,69.60
2017-09-21T05:38:40.016Z,69.60
2017-09-21T05:41:07.543Z,69.60
2017-09-21T05:43:35.418Z,69.60
2017-09-21T05:46:02.947Z,69.60
2017-09-21T05:48:31.250Z,69.60
2017-09-21T05:50:58.827Z,69.60
2017-09-21T05:53:26.360Z,69.50
2017-09-21T05:55:54.308Z,69.60
2017-09-21T05:58:21.856Z,69.60
2017-09-21T06:00:49.605Z,69.50
2017-09-21T06:03:17.192Z,69.50
2017-09-21T06:05:44.691Z,69.40
2017-09-21T06:08:12.570Z,69.30
2017-09-21T06:10:40.947Z,69.20
2017-09-21T06:13:08.573Z,69.10
2017-09-21T06:15:49.630Z,69.00
2017-09-21T06:18:17.929Z,68.90
2017-09-21T06:20:46.544Z,68.80
2017-09-21T06:23:14.108Z,68.80
2017-09-21T06:25:43.522Z,68.70
2017-09-21T06:28:11.071Z,68.70
2017-09-21T06:30:38.623Z,68.60
2017-09-21T06:33:06.541Z,68.70
2017-09-21T06:35:34.907Z,68.50
2017-09-21T06:38:02.454Z,68.50
2017-09-21T06:40:30.027Z,68.40
2017-09-21T06:42:57.571Z,68.40
2017-09-21T06:45:25.404Z,68.40
2017-09-21T06:47:52.956Z,68.30
2017-09-21T06:50:21.251Z,68.10
2017-09-21T06:52:48.800Z,68.10
2017-09-21T06:55:17.123Z,67.90
2017-09-21T06:57:45.116Z,67.80
2017-09-21T07:00:12.634Z,67.80
2017-09-21T07:02:40.192Z,67.70
2017-09-21T07:05:07.731Z,67.60
2017-09-21T07:07:35.253Z,67.40
2017-09-21T07:10:04.560Z,67.30
2017-09-21T07:12:32.089Z,67.30
2017-09-21T07:14:59.741Z,67.10
2017-09-21T07:17:27.300Z,67.00
2017-09-21T07:19:54.832Z,66.80
2017-09-21T07:22:23.417Z,66.50
2017-09-21T07:24:51.004Z,66.50
2017-09-21T07:27:18.524Z,66.50
2017-09-21T07:29:46.841Z,66.40
2017-09-21T07:32:14.387Z,66.30
2017-09-21T07:34:42.195Z,66.20
2017-09-21T07:37:09.718Z,66.20
2017-09-21T07:39:37.259Z,65.90
2017-09-21T07:42:04.854Z,65.90
2017-09-21T07:44:32.395Z,65.90
2017-09-21T07:47:00.236Z,66.00
2017-09-21T07:49:28.537Z,65.90
2017-09-21T07:51:57.484Z,65.70
2017-09-21T07:54:25.040Z,65.60
2017-09-21T07:56:52.645Z,65.50
2017-09-21T07:59:21.259Z,65.00
2017-09-21T08:01:48.784Z,65.00
2017-09-21T08:04:17.097Z,64.60
2017-09-21T08:06:44.657Z,64.60
2017-09-21T08:09:12.172Z,64.40
2017-09-21T08:11:40.789Z,63.90
2017-09-21T08:14:08.354Z,63.90
2017-09-21T08:16:35.879Z,63.80
2017-09-21T08:19:04.198Z,63.50
2017-09-21T08:21:31.730Z,63.30
2017-09-21T08:23:59.581Z,63.40
2017-09-21T08:26:27.898Z,63.30
2017-09-21T08:28:55.435Z,63.30
2017-09-21T08:31:23.746Z,63.20
2017-09-21T08:33:51.264Z,63.20
2017-09-21T08:36:19.919Z,62.70
2017-09-21T08:38:47.449Z,62.70
2017-09-21T08:41:15.027Z,62.70
2017-09-21T08:43:42.568Z,62.40
2017-09-21T08:46:10.110Z,62.00
2017-09-21T08:48:37.961Z,61.90
2017-09-21T08:51:06.265Z,61.90
2017-09-21T08:53:33.793Z,62.60
2017-09-21T08:56:02.104Z,61.30
2017-09-21T08:58:29.620Z,61.30
2017-09-21T09:00:57.454Z,61.00
2017-09-21T09:03:24.977Z,60.60
2017-09-21T09:05:52.517Z,60.40
2017-09-21T09:08:20.850Z,59.50
2017-09-21T09:10:48.390Z,59.40
2017-09-21T09:13:16.277Z,59.30
2017-09-21T09:15:43.821Z,59.10
2017-09-21T09:18:11.344Z,59.10
2017-09-21T09:20:39.664Z,58.80
2017-09-21T09:23:07.238Z,58.80
2017-09-21T09:25:35.369Z,59.40
2017-09-21T09:28:03.677Z,58.10
2017-09-21T09:30:31.219Z,58.10
2017-09-21T09:32:58.776Z,57.90
2017-09-21T09:35:26.319Z,57.90
2017-09-21T09:37:54.936Z,57.50
2017-09-21T09:40:22.477Z,57.40
2017-09-21T09:42:50.756Z,57.30
2017-09-21T09:45:19.063Z,57.30
2017-09-21T09:47:46.580Z,57.30
2017-09-21T09:50:15.207Z,57.00
2017-09-21T09:52:42.736Z,56.90
2017-09-21T09:55:11.033Z,57.10
2017-09-21T09:57:38.628Z,57.00
2017-09-21T10:00:06.185Z,57.00
2017-09-21T10:02:34.004Z,56.70
2017-09-21T10:05:02.316Z,56.70
2017-09-21T10:07:29.860Z,56.70
2017-09-21T10:09:57.505Z,56.70
2017-09-21T10:12:25.047Z,56.60
2017-09-21T10:14:53.063Z,56.40
2017-09-21T10:17:20.604Z,56.40
2017-09-21T10:19:48.951Z,56.30
2017-09-21T10:22:16.515Z,56.00
2017-09-21T10:24:44.041Z,55.80
2017-09-21T10:27:11.894Z,56.30
2017-09-21T10:29:39.415Z,55.70
2017-09-21T10:32:07.725Z,55.10
2017-09-21T10:34:36.048Z,54.90
2017-09-21T10:37:03.569Z,54.80
2017-09-21T10:39:31.388Z,54.70
2017-09-21T10:41:58.906Z,54.70
2017-09-21T10:44:26.440Z,54.30
2017-09-21T10:46:54.010Z,54.50
2017-09-21T10:49:21.531Z,54.60
2017-09-21T10:51:50.173Z,53.80
2017-09-21T10:54:17.694Z,53.80
2017-09-21T10:56:45.219Z,53.40
2017-09-21T10:59:12.765Z,54.10
2017-09-21T11:01:40.274Z,53.60
2017-09-21T11:04:08.870Z,52.60
2017-09-21T11:06:36.401Z,52.70
2017-09-21T11:09:04.723Z,52.50
2017-09-21T11:11:32.291Z,52.50
2017-09-21T11:13:59.839Z,52.30
2017-09-21T11:16:27.718Z,52.30
2017-09-21T11:18:55.517Z,52.10
2017-09-21T11:21:23.056Z,51.90
2017-09-21T11:23:50.593Z,51.50
2017-09-21T11:26:18.128Z,51.30
2017-09-21T11:28:46.800Z,50.80
2017-09-21T11:31:15.114Z,50.90
2017-09-21T11:33:42.641Z,50.90
2017-09-21T11:36:10.960Z,51.80
2017-09-21T11:38:38.508Z,51.80
2017-09-21T11:41:06.494Z,51.50
2017-09-21T11:43:34.015Z,50.50
2017-09-21T11:46:02.303Z,51.50
2017-09-21T11:48:30.620Z,51.90
2017-09-21T11:50:58.138Z,51.90
2017-09-21T11:53:26.732Z,48.40
2017-09-21T11:55:54.264Z,48.30
2017-09-21T11:58:21.786Z,47.10
2017-09-21T12:00:49.335Z,47.50
2017-09-21T12:03:16.854Z,48.10
2017-09-21T12:05:45.457Z,46.20
2017-09-21T12:08:12.985Z,46.00
2017-09-21T12:10:40.529Z,44.40
2017-09-21T12:13:08.096Z,43.50
2017-09-21T12:15:35.722Z,44.10
2017-09-21T12:18:03.669Z,44.80
2017-09-21T12:20:31.216Z,43.90
2017-09-21T12:22:59.509Z,44.80
2017-09-21T12:25:27.076Z,44.80
2017-09-21T12:27:54.636Z,45.40
2017-09-21T12:30:23.282Z,46.30
2017-09-21T12:32:50.840Z,46.40
2017-09-21T12:35:18.368Z,47.10
2017-09-21T12:37:45.934Z,47.20
2017-09-21T12:40:13.483Z,47.60
2017-09-21T12:42:41.564Z,47.30
2017-09-21T12:45:09.120Z,47.30
2017-09-21T12:47:36.677Z,46.90
2017-09-21T12:50:04.241Z,46.80
2017-09-21T12:52:31.805Z,46.90
2017-09-21T12:54:59.698Z,47.10
2017-09-21T12:57:27.208Z,46.50
2017-09-21T12:59:54.734Z,46.20
2017-09-21T13:02:22.328Z,45.90
2017-09-21T13:04:49.994Z,46.30
2017-09-21T13:07:17.889Z,46.40
2017-09-21T13:09:45.471Z,46.10
2017-09-21T13:12:13.815Z,45.80
2017-09-21T13:14:41.435Z,45.80
2017-09-21T13:17:09.182Z,45.70
2017-09-21T13:19:38.018Z,45.70
2017-09-21T13:24:45.741Z,45.80
2017-09-21T13:27:14.191Z,44.90
2017-09-21T13:29:42.542Z,44.20
2017-09-21T13:32:10.269Z,44.10
2017-09-21T13:34:37.846Z,43.90
2017-09-21T13:37:05.792Z,43.90
2017-09-21T13:39:34.552Z,44.10
2017-09-21T13:42:02.912Z,44.30
2017-09-21T13:44:30.913Z,44.20
2017-09-21T13:49:47.180Z,44.80
2017-09-21T13:52:48.389Z,44.60
2017-09-21T14:02:49.407Z,45.60
2017-09-21T14:05:16.939Z,45.10
2017-09-21T14:07:44.631Z,45.30
2017-09-21T14:10:13.074Z,46.50
2017-09-21T14:12:41.175Z,46.20
2017-09-21T14:15:09.035Z,46.50
2017-09-21T14:17:36.562Z,46.30
2017-09-21T14:20:04.134Z,46.10
2017-09-21T14:22:32.455Z,46.00
2017-09-21T14:24:59.976Z,46.10
2017-09-21T14:27:28.724Z,46.00
2017-09-21T14:29:56.237Z,45.90
2017-09-21T14:32:23.851Z,45.80
2017-09-21T14:34:51.444Z,45.50
2017-09-21T14:37:19.016Z,45.50
2017-09-21T14:39:47.670Z,45.10
2017-09-21T14:42:15.206Z,45.10
2017-09-21T14:44:42.750Z,45.20
2017-09-21T14:47:10.333Z,45.00
2017-09-21T14:49:39.475Z,45.20
2017-09-21T14:52:07.394Z,45.30
2017-09-21T14:54:34.941Z,45.60
2017-09-21T14:57:02.475Z,45.90
2017-09-21T14:59:30.043Z,46.10
2017-09-21T15:01:57.566Z,46.40
2017-09-21T15:04:25.521Z,46.60
2017-09-21T15:06:53.037Z,46.80
2017-09-21T15:09:20.577Z,47.00
2017-09-21T15:11:48.891Z,47.30
2017-09-21T15:14:18.131Z,47.30
2017-09-21T15:16:45.979Z,47.60
2017-09-21T15:19:13.521Z,47.90
2017-09-21T15:21:41.079Z,48.20
2017-09-21T15:24:08.637Z,48.50
2017-09-21T15:26:36.172Z,48.70
2017-09-21T15:29:04.031Z,48.80
2017-09-21T15:31:32.369Z,48.60
2017-09-21T15:33:59.928Z,48.60
2017-09-21T15:36:27.906Z,48.80
2017-09-21T15:38:55.465Z,49.00
2017-09-21T15:41:23.916Z,49.00
2017-09-21T15:43:51.442Z,49.10
2017-09-21T15:46:19.966Z,49.50
2017-09-21T15:48:47.522Z,49.50
2017-09-21T15:51:15.051Z,49.80
2017-09-21T15:53:42.877Z,49.90
2017-09-21T15:56:10.423Z,50.10
2017-09-21T15:58:37.970Z,50.30
2017-09-21T16:01:05.519Z,50.50
2017-09-21T16:03:33.052Z,50.70
2017-09-21T16:06:01.650Z,50.80
2017-09-21T16:08:29.171Z,50.80
2017-09-21T16:10:56.708Z,51.10
2017-09-21T16:13:24.821Z,51.30
2017-09-21T16:15:52.350Z,51.50
2017-09-21T16:18:20.183Z,51.80
2017-09-21T16:20:47.764Z,52.00
2017-09-21T16:23:15.295Z,52.10
2017-09-21T16:25:42.858Z,52.20
2017-09-21T16:28:10.418Z,52.10
2017-09-21T16:30:38.321Z,52.20
2017-09-21T16:33:05.854Z,52.20
2017-09-21T16:35:33.394Z,52.20
2017-09-21T16:38:01.908Z,52.30
2017-09-21T16:40:29.892Z,52.30
2017-09-21T16:42:57.896Z,52.30
2017-09-21T16:45:25.445Z,52.50
2017-09-21T16:47:52.997Z,52.50
2017-09-21T16:50:20.571Z,52.60
2017-09-21T16:52:48.155Z,52.70
2017-09-21T16:55:16.798Z,53.00
2017-09-21T16:57:44.429Z,53.00
2017-09-21T17:00:12.049Z,53.20
2017-09-21T17:02:39.644Z,53.30
2017-09-21T17:05:07.189Z,53.40
2017-09-21T17:07:35.943Z,53.50
2017-09-21T17:10:03.537Z,53.50
2017-09-21T17:12:31.852Z,53.60
2017-09-21T17:14:59.418Z,53.70
2017-09-21T17:17:26.978Z,53.80
2017-09-21T17:19:54.814Z,54.00
2017-09-21T17:22:23.106Z,54.20
2017-09-21T17:24:50.640Z,54.20
2017-09-21T17:27:18.979Z,54.40
2017-09-21T17:29:46.928Z,54.40
2017-09-21T17:32:14.738Z,54.50
2017-09-21T17:34:43.095Z,54.60
2017-09-21T17:37:10.774Z,54.70
2017-09-21T17:39:38.407Z,55.10
2017-09-21T17:42:06.886Z,54.90
2017-09-21T17:44:34.803Z,55.00
2017-09-21T17:47:02.357Z,55.30
2017-09-21T17:49:29.878Z,55.70
2017-09-21T17:51:57.448Z,55.30
2017-09-21T17:54:25.003Z,55.50
2017-09-21T17:56:52.866Z,55.50
2017-09-21T17:59:20.393Z,55.60
2017-09-21T18:01:48.688Z,55.70
2017-09-21T18:04:16.303Z,55.80
2017-09-21T18:06:43.842Z,55.90
2017-09-21T18:09:11.702Z,55.90
2017-09-21T18:11:39.232Z,56.10
2017-09-21T18:14:06.757Z,56.20
2017-09-21T18:16:34.394Z,56.30
2017-09-21T18:19:02.758Z,56.50
2017-09-21T18:21:30.598Z,56.60
2017-09-21T18:23:58.211Z,56.70
2017-09-21T18:26:25.757Z,56.90
2017-09-21T18:28:53.388Z,57.10
2017-09-21T18:31:20.956Z,57.20
2017-09-21T18:33:48.857Z,57.30
2017-09-21T18:36:16.424Z,57.50
2017-09-21T18:38:44.217Z,57.60
2017-09-21T18:41:11.803Z,57.70
2017-09-21T18:43:39.347Z,57.90
2017-09-21T18:46:07.201Z,57.90
2017-09-21T18:48:35.519Z,58.10
2017-09-21T18:51:03.498Z,58.10
2017-09-21T18:53:31.305Z,58.10
2017-09-21T18:55:59.641Z,58.20
2017-09-21T18:58:27.557Z,58.20
2017-09-21T19:00:55.891Z,58.40
2017-09-21T19:03:23.519Z,58.50
2017-09-21T19:05:53.969Z,58.40
2017-09-21T19:08:21.567Z,58.50
2017-09-21T19:10:49.538Z,58.50
2017-09-21T19:13:17.097Z,58.50
2017-09-21T19:15:44.661Z,58.60
2017-09-21T19:18:12.275Z,58.60
2017-09-21T19:20:39.815Z,58.70
2017-09-21T19:23:08.442Z,58.70
2017-09-21T19:25:35.994Z,58.60
2017-09-21T19:28:03.523Z,58.70
2017-09-21T19:30:31.837Z,58.80
2017-09-21T19:33:00.152Z,58.80
2017-09-21T19:35:27.989Z,58.80
2017-09-21T19:37:55.567Z,58.80
2017-09-21T19:40:23.103Z,58.90
2017-09-21T19:42:50.649Z,58.90
2017-09-21T19:45:18.204Z,58.90
2017-09-21T19:47:45.796Z,59.00
2017-09-21T19:50:13.364Z,59.10
2017-09-21T19:52:40.936Z,59.20
2017-09-21T19:55:08.532Z,59.10
2017-09-21T19:57:36.859Z,59.10
2017-09-21T20:00:05.236Z,59.10
2017-09-21T20:02:32.794Z,59.00
2017-09-21T20:05:04.637Z,59.20
2017-09-21T20:07:32.319Z,59.40
2017-09-21T20:09:59.898Z,59.50
2017-09-21T20:12:27.484Z,59.70
2017-09-21T20:14:55.419Z,59.70
2017-09-21T20:17:22.990Z,60.20
2017-09-21T20:19:50.553Z,59.80
2017-09-21T20:22:18.125Z,59.80
2017-09-21T20:24:45.660Z,59.90
2017-09-21T20:27:13.800Z,60.00
2017-09-21T20:29:41.366Z,60.00
2017-09-21T20:32:08.957Z,60.10
2017-09-21T20:34:36.545Z,60.20
2017-09-21T20:37:04.064Z,60.30
2017-09-21T20:39:31.925Z,60.10
2017-09-21T20:41:59.467Z,60.10
2017-09-21T20:44:27.018Z,60.00
2017-09-21T20:46:55.359Z,60.00
2017-09-21T20:49:22.948Z,60.10
2017-09-21T20:51:50.836Z,60.20
2017-09-21T20:54:18.395Z,60.30
2017-09-21T20:56:45.998Z,60.30
2017-09-21T20:59:13.637Z,60.30
2017-09-21T21:01:41.207Z,60.20
2017-09-21T21:04:08.866Z,60.20
2017-09-21T21:06:36.391Z,60.30
2017-09-21T21:09:03.964Z,60.20
2017-09-21T21:11:31.517Z,60.30
2017-09-21T21:13:59.910Z,60.30
2017-09-21T21:16:27.473Z,60.60
2017-09-21T21:18:55.423Z,60.50
2017-09-21T21:21:23.723Z,60.60
2017-09-21T21:23:51.258Z,60.60
2017-09-21T21:26:19.643Z,60.70
2017-09-21T21:28:47.237Z,60.80
2017-09-21T21:31:14.850Z,60.90
2017-09-21T21:33:43.250Z,61.30
2017-09-21T21:36:10.811Z,61.30
2017-09-21T21:38:39.838Z,61.40
2017-09-21T21:41:08.161Z,61.50
2017-09-21T21:43:35.750Z,61.60
2017-09-21T21:46:04.371Z,61.70
2017-09-21T21:48:31.948Z,61.80
2017-09-21T21:50:59.488Z,61.90
2017-09-21T21:53:27.123Z,61.90
2017-09-21T21:55:54.642Z,62.00
2017-09-21T21:58:22.555Z,62.20
2017-09-21T22:00:50.144Z,62.30
2017-09-21T22:03:18.142Z,62.40
2017-09-21T22:05:45.719Z,62.30
2017-09-21T22:08:13.240Z,62.20
2017-09-21T22:10:41.047Z,62.10
2017-09-21T22:13:09.028Z,62.20
2017-09-21T22:15:37.320Z,62.00
2017-09-21T22:18:05.640Z,62.20
2017-09-21T22:20:33.171Z,62.20
2017-09-21T22:23:01.077Z,62.30
2017-09-21T22:25:28.695Z,62.30
2017-09-21T22:27:56.240Z,62.40
2017-09-21T22:30:24.551Z,62.40
2017-09-21T22:32:52.118Z,62.40
2017-09-21T22:35:31.856Z,62.40
2017-09-21T22:37:59.366Z,62.40
2017-09-21T22:40:26.897Z,62.40
2017-09-21T22:42:54.448Z,62.40
2017-09-21T22:45:22.005Z,62.40
2017-09-21T22:47:49.822Z,62.50
2017-09-21T22:50:18.129Z,62.60
2017-09-21T22:52:45.683Z,62.50
2017-09-21T22:55:13.243Z,62.80
2017-09-21T22:57:40.804Z,62.80
2017-09-21T23:00:08.622Z,62.90
2017-09-21T23:02:36.209Z,63.00
2017-09-21T23:05:04.507Z,63.20
2017-09-21T23:07:32.086Z,63.20
2017-09-21T23:09:59.604Z,63.30
2017-09-21T23:12:28.246Z,63.30
2017-09-21T23:14:56.052Z,63.30
2017-09-21T23:17:24.370Z,64.00
2017-09-21T23:19:51.926Z,63.30
2017-09-21T23:22:19.449Z,63.40
2017-09-21T23:24:47.383Z,63.60
2017-09-21T23:27:14.905Z,63.40
2017-09-21T23:29:43.213Z,63.30
2017-09-21T23:32:10.975Z,63.40
2017-09-21T23:34:38.523Z,63.40
2017-09-21T23:37:06.354Z,63.60
2017-09-21T23:39:34.652Z,63.80
2017-09-21T23:42:02.945Z,63.80
2017-09-21T23:44:30.492Z,63.80
2017-09-21T23:46:58.775Z,63.80
2017-09-21T23:49:26.674Z,64.60
2017-09-21T23:51:54.198Z,63.80
2017-09-21T23:54:22.508Z,63.90
2017-09-21T23:56:50.070Z,64.00
2017-09-21T23:59:17.602Z,64.00
